Time;durP1;ratioP1;P1;durP2;ratioP2;P2;SDS_P1;SDS_P2;PMS_P1;PMS_P2;Temp;Humidity;BMP_temperature;BMP_pressure;BME280_temperature;BME280_humidity;BME280_pressure;Samples;Min_cycle;Max_cycle;Signal;HPM_P1;HPM_P2
2021/05/10 00:01:06;;;;;;;3.00;1.23;;;;;;;16.49;56.19;100467.34;5037935;28;20040;-76
2021/05/10 00:03:35;;;;;;;1.90;1.80;;;;;;;16.42;56.01;100458.91;5037729;28;20395;-76
2021/05/10 00:06:03;;;;;;;2.35;1.42;;;;;;;16.37;56.59;100457.28;5037789;28;20021;-76
2021/05/10 00:08:29;;;;;;;3.45;1.90;;;;;;;16.36;56.30;100460.50;5037674;28;20036;-76
2021/05/10 00:10:55;;;;;;;1.85;1.42;;;;;;;16.32;56.72;100463.28;5037825;28;20021;-76
2021/05/10 00:13:22;;;;;;;3.20;1.90;;;;;;;16.30;56.66;100464.84;5037639;28;20111;-76
2021/05/10 00:15:48;;;;;;;6.80;2.03;;;;;;;16.27;56.30;100458.03;5037592;28;20017;-76
2021/05/10 00:18:15;;;;;;;2.38;1.60;;;;;;;16.40;56.73;100470.50;5055552;28;20111;-76
2021/05/10 00:20:42;;;;;;;1.80;1.70;;;;;;;16.33;56.56;100473.31;5037535;28;20032;-76
2021/05/10 00:23:09;;;;;;;2.50;1.70;;;;;;;16.20;57.24;100474.88;5055170;28;20036;-76
2021/05/10 00:25:37;;;;;;;2.00;1.58;;;;;;;16.12;57.39;100476.81;5055037;28;20096;-77
2021/05/10 00:28:04;;;;;;;1.80;1.70;;;;;;;16.14;57.42;100480.06;5037451;28;20528;-76
2021/05/10 00:30:30;;;;;;;2.65;1.80;;;;;;;16.09;57.46;100469.22;5036907;28;20148;-76
2021/05/10 00:32:58;;;;;;;2.42;1.80;;;;;;;16.12;57.98;100476.03;5037366;28;20116;-76
2021/05/10 00:35:24;;;;;;;2.50;1.90;;;;;;;16.02;58.30;100474.75;5055316;28;20037;-76
2021/05/10 00:37:50;;;;;;;3.63;1.83;;;;;;;16.03;57.97;100484.78;5055009;28;20028;-76
2021/05/10 00:40:19;;;;;;;3.10;1.85;;;;;;;16.04;58.29;100480.81;5037165;28;20032;-76
2021/05/10 00:42:45;;;;;;;3.35;1.70;;;;;;;16.04;58.71;100480.81;5036677;28;20103;-76
2021/05/10 00:45:12;;;;;;;2.05;1.67;;;;;;;16.02;59.03;100483.19;5037035;28;20528;-76
2021/05/10 00:47:38;;;;;;;3.72;2.38;;;;;;;16.21;58.52;100482.88;5020369;28;20109;-76
2021/05/10 00:50:06;;;;;;;3.58;2.10;;;;;;;16.20;58.41;100480.50;5037219;28;20025;-76
2021/05/10 00:52:31;;;;;;;2.25;2.05;;;;;;;16.11;58.62;100472.41;5054805;28;20025;-76
2021/05/10 00:54:57;;;;;;;1.92;1.73;;;;;;;16.01;58.79;100475.16;5036985;28;20166;-76
2021/05/10 00:57:23;;;;;;;2.53;2.10;;;;;;;16.01;58.63;100461.13;5036883;28;20372;-76
2021/05/10 00:59:51;;;;;;;1.92;1.83;;;;;;;16.04;59.09;100486.41;5036685;28;20037;-75
2021/05/10 01:02:18;;;;;;;2.33;1.83;;;;;;;16.01;58.66;100475.97;5036803;28;20390;-76
2021/05/10 01:04:48;;;;;;;3.92;1.98;;;;;;;16.02;58.84;100480.38;5020204;28;20123;-76
2021/05/10 01:07:14;;;;;;;2.08;1.88;;;;;;;16.12;58.13;100470.41;5036743;28;20079;-76
2021/05/10 01:09:42;;;;;;;3.53;2.42;;;;;;;16.07;58.42;100484.81;5036534;28;20029;-75
2021/05/10 01:12:08;;;;;;;2.28;2.08;;;;;;;16.00;58.93;100485.59;5036906;28;20108;-76
2021/05/10 01:14:37;;;;;;;1.70;1.60;;;;;;;16.07;58.26;100484.81;5036674;28;20061;-76
2021/05/10 01:17:03;;;;;;;2.00;1.90;;;;;;;16.04;57.81;100486.41;5036423;28;20032;-77
2021/05/10 01:19:28;;;;;;;3.85;2.55;;;;;;;15.89;58.64;100484.72;5036597;28;20025;-76
2021/05/10 01:22:02;;;;;;;2.08;1.95;;;;;;;15.88;58.63;100483.13;5035801;28;20028;-76
2021/05/10 01:24:30;;;;;;;6.75;2.13;;;;;;;15.80;59.15;100487.06;5036441;28;20032;-76
2021/05/10 01:26:58;;;;;;;2.85;1.80;;;;;;;15.77;58.86;100485.84;5036268;28;20025;-76
2021/05/10 01:29:24;;;;;;;5.00;1.95;;;;;;;15.77;59.14;100479.44;5036255;28;20032;-75
2021/05/10 01:31:50;;;;;;;5.38;1.92;;;;;;;15.59;59.19;100454.03;5054360;28;20082;-76
2021/05/10 01:34:16;;;;;;;3.83;1.70;;;;;;;15.76;59.17;100486.22;5036174;28;20115;-76
2021/05/10 01:36:47;;;;;;;1.60;1.50;;;;;;;15.84;58.70;100485.09;5036208;28;20230;-76
2021/05/10 01:39:12;;;;;;;2.35;1.50;;;;;;;15.80;58.42;100481.44;5036316;28;20553;-76
2021/05/10 01:41:38;;;;;;;2.08;1.88;;;;;;;15.77;58.76;100471.84;5054318;28;20024;-76
2021/05/10 01:44:04;;;;;;;2.20;1.90;;;;;;;15.77;59.09;100487.88;5035958;28;20036;-76
2021/05/10 01:46:32;;;;;;;1.77;1.67;;;;;;;15.69;59.09;100482.19;5036203;28;20399;-76
2021/05/10 01:48:58;;;;;;;2.08;1.67;;;;;;;15.63;59.50;100466.91;5035987;28;20091;-76
2021/05/10 01:51:26;;;;;;;1.88;1.75;;;;;;;15.66;59.45;100482.19;5036409;28;20033;-76
2021/05/10 01:53:52;;;;;;;2.90;1.95;;;;;;;15.65;59.58;100486.16;5036212;28;20102;-77
2021/05/10 01:56:21;;;;;;;2.50;1.77;;;;;;;15.65;59.59;100486.97;5035505;28;20040;-76
2021/05/10 01:58:54;;;;;;;1.65;1.40;;;;;;;15.61;59.37;100491.72;5035951;28;20029;-78
2021/05/10 02:01:19;;;;;;;1.70;1.60;;;;;;;15.52;60.53;100488.44;5035497;28;20064;-76
2021/05/10 02:03:48;;;;;;;1.70;1.58;;;;;;;15.52;60.29;100485.66;5036299;28;20075;-76
2021/05/10 02:06:14;;;;;;;2.10;1.90;;;;;;;15.45;60.76;100477.19;5036955;28;20029;-76
2021/05/10 02:08:45;;;;;;;2.30;2.13;;;;;;;15.36;60.84;100473.91;5036365;28;20039;-76
2021/05/10 02:11:10;;;;;;;2.28;1.90;;;;;;;15.30;60.76;100483.88;5035632;28;20486;-76
2021/05/10 02:13:36;;;;;;;1.45;1.35;;;;;;;15.30;60.84;100481.06;5035537;28;20033;-76
2021/05/10 02:16:02;;;;;;;5.45;3.50;;;;;;;15.29;60.74;100473.84;5034898;28;20032;-76
2021/05/10 02:18:34;;;;;;;2.55;2.35;;;;;;;15.39;60.31;100473.09;5035551;28;20029;-76
2021/05/10 02:21:00;;;;;;;2.58;2.38;;;;;;;15.37;60.97;100475.50;5034839;28;20032;-76
2021/05/10 02:23:30;;;;;;;1.80;1.70;;;;;;;15.32;60.74;100461.84;5035599;28;20064;-76
2021/05/10 02:25:59;;;;;;;1.92;1.77;;;;;;;15.31;60.88;100471.47;5053309;28;20441;-76
2021/05/10 02:28:27;;;;;;;2.10;1.75;;;;;;;15.27;61.07;100470.63;5053247;28;20471;-75
2021/05/10 02:30:57;;;;;;;2.00;1.90;;;;;;;15.33;60.62;100471.88;5031976;28;20519;-76
2021/05/10 02:33:27;;;;;;;3.38;2.38;;;;;;;15.37;60.31;100464.28;5031943;28;20100;-75
2021/05/10 02:35:54;;;;;;;1.90;1.70;;;;;;;15.26;60.40;100474.63;5033014;28;20032;-77
2021/05/10 02:38:23;;;;;;;1.58;1.48;;;;;;;15.40;60.37;100460.72;5016170;28;20033;-76
2021/05/10 02:40:49;;;;;;;2.65;1.63;;;;;;;15.30;60.59;100472.66;5032070;28;20026;-76
2021/05/10 02:43:16;;;;;;;3.42;3.13;;;;;;;15.17;61.13;100467.31;5031938;28;20025;-76
2021/05/10 02:45:43;;;;;;;10.32;9.02;;;;;;;15.24;60.93;100472.22;5015603;28;20037;-76
2021/05/10 02:48:09;;;;;;;11.00;10.00;;;;;;;15.28;60.69;100470.22;5033530;28;20087;-76
2021/05/10 02:50:34;;;;;;;11.82;10.68;;;;;;;15.22;60.94;100465.38;5032130;28;20468;-76
2021/05/10 02:53:01;;;;;;;8.70;7.80;;;;;;;15.27;60.97;100465.00;5031936;28;20435;-76
2021/05/10 02:55:29;;;;;;;13.00;6.45;;;;;;;15.16;60.99;100465.72;5033080;28;20037;-75
2021/05/10 02:57:58;;;;;;;7.82;5.22;;;;;;;15.20;60.83;100455.34;5031952;28;20022;-76
2021/05/10 03:00:28;;;;;;;5.75;4.70;;;;;;;15.31;60.58;100468.66;5033219;28;20026;-76
2021/05/10 03:02:57;;;;;;;9.07;8.10;;;;;;;15.26;60.91;100469.81;5033019;28;20040;-75
2021/05/10 03:05:31;;;;;;;5.38;4.60;;;;;;;15.26;61.18;100469.00;5031922;28;20459;-76
2021/05/10 03:07:58;;;;;;;4.97;4.50;;;;;;;15.16;61.51;100459.31;5032883;28;20026;-76
2021/05/10 03:10:25;;;;;;;11.45;8.57;;;;;;;15.20;61.82;100477.78;5031908;28;20498;-76
2021/05/10 03:12:53;;;;;;;16.20;14.20;;;;;;;15.24;61.54;100479.81;5031823;28;20029;-75
2021/05/10 03:15:21;;;;;;;15.85;11.25;;;;;;;15.23;61.97;100481.00;5031660;28;20605;-75
2021/05/10 03:17:50;;;;;;;12.30;10.93;;;;;;;15.23;62.02;100486.59;5033118;28;20109;-76
2021/05/10 03:20:22;;;;;;;12.30;10.15;;;;;;;15.24;62.19;100488.22;5031664;28;20029;-76
2021/05/10 03:22:52;;;;;;;9.85;7.32;;;;;;;15.23;62.08;100489.41;5031971;28;20060;-76
2021/05/10 03:25:19;;;;;;;9.27;8.48;;;;;;;15.35;61.92;100491.94;5032690;28;20114;-76
2021/05/10 03:27:44;;;;;;;6.15;5.03;;;;;;;15.39;61.80;100489.94;5035211;28;20021;-77
2021/05/10 03:30:21;;;;;;;3.95;3.30;;;;;;;15.23;62.42;100475.38;5034920;28;20045;-76
2021/05/10 03:32:48;;;;;;;2.75;2.33;;;;;;;15.40;62.15;100486.75;5036552;28;20038;-76
2021/05/10 03:35:15;;;;;;;4.10;2.38;;;;;;;15.41;62.60;100493.97;5035539;28;20022;-76
2021/05/10 03:37:41;;;;;;;6.68;3.63;;;;;;;15.34;62.85;100488.31;5035059;28;20463;-76
2021/05/10 03:40:09;;;;;;;4.95;3.10;;;;;;;15.22;63.49;100490.59;5035269;28;20051;-76
2021/05/10 03:42:35;;;;;;;6.18;2.85;;;;;;;15.23;63.39;100487.41;5035020;28;20618;-76
2021/05/10 03:45:00;;;;;;;3.15;2.95;;;;;;;15.19;63.31;100486.59;5034930;28;20045;-76
2021/05/10 03:47:43;;;;;;;4.78;2.97;;;;;;;15.17;63.00;100486.94;5035040;28;20037;-77
2021/05/10 03:50:20;;;;;;;6.25;4.30;;;;;;;15.08;63.08;100489.28;5035163;28;20052;-76
2021/05/10 03:52:48;;;;;;;7.43;6.68;;;;;;;15.03;62.80;100488.84;5036101;28;20033;-76
2021/05/10 03:55:22;;;;;;;9.90;5.97;;;;;;;15.22;62.10;100493.41;5034825;28;20026;-76
2021/05/10 03:57:48;;;;;;;6.20;3.22;;;;;;;15.24;61.74;100485.44;5034778;28;20418;-74
2021/05/10 04:00:17;;;;;;;3.08;2.80;;;;;;;15.30;61.53;100486.69;5034981;28;20026;-76
2021/05/10 04:02:43;;;;;;;3.97;3.22;;;;;;;15.28;60.99;100489.03;5034581;28;20095;-76
2021/05/10 04:15:52;;;;;;;6.57;2.17;;;;;;;15.51;59.96;100503.66;5035843;28;20562;-76
2021/05/10 04:18:17;;;;;;;3.13;1.98;;;;;;;16.10;58.76;100493.25;5033738;28;20395;-76
2021/05/10 04:20:48;;;;;;;5.00;1.90;;;;;;;16.72;56.27;100504.38;5034108;28;20116;-76
2021/05/10 04:23:18;;;;;;;2.05;1.65;;;;;;;17.29;54.52;100492.41;5030225;28;20057;-76
2021/05/10 04:25:50;;;;;;;3.40;1.80;;;;;;;17.75;53.14;100500.06;5035448;28;20089;-76
2021/05/10 04:28:16;;;;;;;4.07;1.60;;;;;;;18.30;51.80;100494.69;5034273;28;20451;-76
2021/05/10 04:30:43;;;;;;;2.13;1.60;;;;;;;18.78;50.51;100502.56;5017072;28;20152;-76
2021/05/10 04:33:12;;;;;;;3.58;1.88;;;;;;;19.16;49.42;100493.44;5034941;28;20029;-76
2021/05/10 04:35:40;;;;;;;5.57;2.47;;;;;;;19.63;48.13;100494.72;5033227;28;20060;-76
2021/05/10 04:38:11;;;;;;;1.83;1.50;;;;;;;20.05;46.78;100499.13;5033163;28;20110;-74
2021/05/10 04:40:39;;;;;;;4.55;1.35;;;;;;;20.54;45.84;100501.81;5034681;28;20040;-75
2021/05/10 04:43:08;;;;;;;2.65;1.50;;;;;;;21.06;44.33;100490.19;5034964;28;20044;-75
2021/05/10 04:45:35;;;;;;;2.50;1.73;;;;;;;21.37;43.53;100480.41;5033785;28;20041;-76
2021/05/10 04:48:00;;;;;;;2.80;1.67;;;;;;;21.91;42.55;100499.28;5033478;28;20021;-77
2021/05/10 04:50:27;;;;;;;1.70;1.40;;;;;;;22.39;41.47;100495.94;5033426;28;20036;-76
2021/05/10 04:52:54;;;;;;;3.00;1.50;;;;;;;22.71;41.31;100502.97;5033179;28;20472;-76
2021/05/10 04:55:23;;;;;;;3.08;1.73;;;;;;;22.99;40.69;100502.34;5033390;28;20038;-75
2021/05/10 04:57:51;;;;;;;5.20;2.00;;;;;;;23.24;40.10;100489.63;5033204;28;20475;-76
2021/05/10 05:00:17;;;;;;;2.38;1.75;;;;;;;23.56;39.79;100490.88;5033371;28;20033;-75
2021/05/10 05:02:45;;;;;;;3.95;2.03;;;;;;;23.78;39.09;100486.25;5034064;28;20039;-76
2021/05/10 05:05:11;;;;;;;4.72;1.70;;;;;;;24.36;38.42;100491.19;5033266;28;20120;-75
2021/05/10 05:07:41;;;;;;;3.95;1.83;;;;;;;24.42;38.19;100484.50;5033097;28;20033;-75
2021/05/10 05:10:10;;;;;;;4.40;2.35;;;;;;;24.41;38.52;100502.81;5034872;28;20033;-75
2021/05/10 05:12:39;;;;;;;2.78;1.88;;;;;;;25.23;37.38;100490.97;5033078;28;20493;-76
2021/05/10 05:15:07;;;;;;;3.40;2.75;;;;;;;25.46;36.70;100484.91;5033190;28;20053;-75
2021/05/10 05:17:36;;;;;;;6.10;2.75;;;;;;;25.69;37.07;100492.28;5032894;28;20035;-75
2021/05/10 05:20:06;;;;;;;4.47;3.10;;;;;;;25.70;37.59;100487.38;5033934;28;20036;-76
2021/05/10 05:22:31;;;;;;;3.70;2.80;;;;;;;26.10;36.67;100496.16;5032876;28;20380;-75
2021/05/10 05:24:57;;;;;;;4.57;3.00;;;;;;;25.66;37.02;100498.09;5032794;28;20037;-76
2021/05/10 05:27:28;;;;;;;4.30;2.65;;;;;;;25.89;36.22;100489.16;5032969;28;20033;-75
2021/05/10 05:29:53;;;;;;;2.20;2.00;;;;;;;24.92;37.12;100490.69;5032280;28;20041;-75
2021/05/10 05:32:21;;;;;;;3.13;2.35;;;;;;;24.48;38.51;100496.91;5034388;28;20075;-76
2021/05/10 05:34:46;;;;;;;2.47;2.03;;;;;;;25.16;36.68;100485.50;5034054;28;20037;-76
2021/05/10 05:37:12;;;;;;;2.33;1.90;;;;;;;25.66;36.17;100503.78;5032025;28;20447;-75
2021/05/10 05:39:38;;;;;;;2.45;1.98;;;;;;;25.77;36.34;100498.53;5032587;28;20033;-75
2021/05/10 05:42:04;;;;;;;3.15;2.00;;;;;;;25.73;36.23;100497.84;5032398;28;20033;-75
2021/05/10 05:44:33;;;;;;;2.85;1.80;;;;;;;25.82;35.50;100495.91;5032229;28;20037;-75
2021/05/10 05:47:01;;;;;;;1.83;1.73;;;;;;;26.18;33.98;100499.53;5032272;28;20021;-75
2021/05/10 05:49:27;;;;;;;3.42;1.40;;;;;;;26.28;33.78;100499.16;5031421;28;20114;-76
2021/05/10 05:51:52;;;;;;;1.50;1.40;;;;;;;26.25;33.47;100504.97;5032277;28;20069;-75
2021/05/10 05:54:18;;;;;;;4.93;1.95;;;;;;;26.54;32.94;100496.19;5032285;28;20484;-75
2021/05/10 05:56:44;;;;;;;2.58;1.88;;;;;;;26.90;32.83;100498.47;5032164;28;20108;-75
2021/05/10 05:59:14;;;;;;;1.95;1.77;;;;;;;26.89;32.67;100494.78;5032325;28;20033;-75
2021/05/10 06:01:42;;;;;;;2.97;1.40;;;;;;;27.62;31.47;100497.16;5032221;28;20472;-75
2021/05/10 06:04:11;;;;;;;3.70;1.67;;;;;;;27.48;32.58;100494.88;5032201;28;20037;-76
2021/05/10 06:06:36;;;;;;;5.88;2.00;;;;;;;27.50;32.60;100495.22;5032232;28;20120;-75
2021/05/10 06:09:08;;;;;;;3.97;1.88;;;;;;;27.47;32.58;100499.00;5032211;28;20060;-75
2021/05/10 06:11:33;;;;;;;3.38;2.00;;;;;;;26.19;34.03;100501.91;5016265;28;20056;-75
2021/05/10 06:13:59;;;;;;;3.45;2.10;;;;;;;26.04;35.26;100501.63;5031665;28;20460;-74
2021/05/10 06:16:30;;;;;;;1.98;1.70;;;;;;;27.10;33.45;100506.66;5032042;28;20025;-76
2021/05/10 06:18:57;;;;;;;2.47;1.55;;;;;;;26.69;33.85;100505.00;5032977;28;20029;-76
2021/05/10 06:21:25;;;;;;;2.20;1.85;;;;;;;27.24;33.60;100508.94;5032796;28;20021;-74
2021/05/10 06:23:52;;;;;;;4.80;1.95;;;;;;;27.07;33.52;100502.69;5031894;28;20037;-75
2021/05/10 06:26:18;;;;;;;2.88;1.83;;;;;;;26.97;33.72;100505.94;5032352;28;20113;-75
2021/05/10 06:28:49;;;;;;;4.20;1.58;;;;;;;27.11;33.46;100506.22;5031991;28;20447;-75
2021/05/10 06:31:15;;;;;;;2.08;1.52;;;;;;;27.64;33.28;100496.66;5031349;28;20049;-76
2021/05/10 06:33:44;;;;;;;5.07;1.80;;;;;;;27.50;33.02;100500.16;5032019;28;20476;-76
2021/05/10 06:36:09;;;;;;;1.88;1.50;;;;;;;28.25;32.13;100496.91;5031508;28;20032;-74
2021/05/10 06:38:35;;;;;;;4.03;1.60;;;;;;;27.32;32.66;100495.16;5031959;28;20025;-75
2021/05/10 06:41:00;;;;;;;8.65;2.10;;;;;;;27.71;32.73;100496.41;5031646;28;20034;-75
2021/05/10 06:43:29;;;;;;;3.28;1.58;;;;;;;28.30;31.88;100490.56;5032631;28;20484;-74
2021/05/10 06:45:55;;;;;;;6.13;1.67;;;;;;;27.56;32.77;100493.31;5032893;28;20104;-75
2021/05/10 06:48:32;;;;;;;4.82;1.90;;;;;;;27.18;34.13;100495.75;5031647;28;20116;-75
2021/05/10 06:51:00;;;;;;;9.10;2.25;;;;;;;27.28;33.88;100500.25;5031529;28;20033;-75
2021/05/10 06:53:27;;;;;;;2.75;2.10;;;;;;;26.84;34.42;100498.25;5031762;28;20104;-76
2021/05/10 06:55:54;;;;;;;2.47;1.55;;;;;;;26.75;34.06;100497.44;5031594;28;20057;-74
2021/05/10 06:58:20;;;;;;;2.35;1.50;;;;;;;26.96;33.84;100496.59;5032932;28;20022;-75
2021/05/10 07:00:49;;;;;;;1.98;1.80;;;;;;;27.47;32.78;100496.16;5033556;28;20530;-76
2021/05/10 07:03:18;;;;;;;2.17;1.50;;;;;;;27.38;33.09;100499.00;5035186;28;20036;-75
2021/05/10 07:05:44;;;;;;;3.33;2.30;;;;;;;27.60;32.33;100490.31;5031413;28;20040;-75
2021/05/10 07:08:15;;;;;;;2.70;1.73;;;;;;;27.04;33.49;100497.88;5035354;28;20030;-75
2021/05/10 07:10:48;;;;;;;3.25;2.33;;;;;;;27.80;31.86;100492.75;5036843;28;20361;-76
2021/05/10 07:13:14;;;;;;;3.13;1.55;;;;;;;27.30;31.81;100495.63;5035199;28;20026;-75
2021/05/10 07:15:40;;;;;;;3.25;1.85;;;;;;;27.46;32.04;100497.44;5035211;28;20033;-75
2021/05/10 07:18:08;;;;;;;2.75;2.33;;;;;;;27.49;32.19;100487.94;5035140;28;20040;-75
2021/05/10 07:20:34;;;;;;;2.58;2.13;;;;;;;27.75;30.29;100491.34;5035200;28;20029;-75
2021/05/10 07:23:01;;;;;;;2.75;2.42;;;;;;;27.68;30.42;100492.38;5035019;28;20050;-75
2021/05/10 07:25:27;;;;;;;3.50;1.95;;;;;;;26.99;30.44;100489.94;5034905;28;20091;-74
2021/05/10 07:27:58;;;;;;;2.78;1.90;;;;;;;26.86;30.71;100487.19;5034953;28;20034;-75
2021/05/10 07:30:24;;;;;;;3.58;2.58;;;;;;;27.10;31.02;100478.09;5034631;28;20080;-76
2021/05/10 07:32:50;;;;;;;5.03;2.13;;;;;;;26.94;31.71;100489.75;5034827;28;20057;-75
2021/05/10 07:35:15;;;;;;;3.10;2.22;;;;;;;26.61;31.37;100488.16;5035018;28;20033;-75
2021/05/10 07:37:41;;;;;;;4.82;1.88;;;;;;;27.00;31.08;100490.72;5034818;28;20021;-75
2021/05/10 07:40:08;;;;;;;3.03;1.90;;;;;;;27.99;29.09;100488.66;5036403;28;20100;-75
2021/05/10 07:42:36;;;;;;;2.83;1.80;;;;;;;28.33;28.39;100481.81;5034879;28;20112;-75
2021/05/10 07:45:03;;;;;;;2.28;1.92;;;;;;;28.44;28.67;100482.13;5035000;28;20514;-74
2021/05/10 07:47:31;;;;;;;3.15;2.40;;;;;;;28.50;27.56;100479.44;5035555;28;20431;-75
2021/05/10 07:50:00;;;;;;;2.53;2.33;;;;;;;27.68;28.95;100483.81;5034916;28;20128;-75
2021/05/10 07:52:28;;;;;;;3.08;2.65;;;;;;;27.97;28.51;100476.09;5034394;28;20029;-76
2021/05/10 07:54:53;;;;;;;2.45;2.25;;;;;;;28.68;26.83;100473.66;5034757;28;20466;-76
2021/05/10 07:57:19;;;;;;;2.42;1.88;;;;;;;28.44;26.92;100478.47;5035062;28;20108;-73
2021/05/10 07:59:48;;;;;;;2.78;1.67;;;;;;;28.77;25.66;100474.91;5034397;28;20498;-75
2021/05/10 08:02:13;;;;;;;2.90;1.60;;;;;;;29.49;24.27;100473.00;5033757;28;20095;-74
2021/05/10 08:04:41;;;;;;;3.55;1.65;;;;;;;30.43;23.23;100470.53;5033888;28;20033;-74
2021/05/10 08:07:09;;;;;;;3.20;1.65;;;;;;;30.55;23.39;100468.66;5034120;28;20040;-75
2021/05/10 08:09:35;;;;;;;1.83;1.17;;;;;;;29.04;23.54;100469.09;5034172;28;20040;-75
2021/05/10 08:12:01;;;;;;;14.45;1.75;;;;;;;28.87;24.03;100470.72;5034421;28;20033;-73
2021/05/10 08:14:29;;;;;;;2.65;1.20;;;;;;;29.80;23.44;100463.25;5033902;28;20041;-75
2021/05/10 08:16:59;;;;;;;4.40;1.20;;;;;;;30.83;22.76;100471.25;5034313;28;20022;-74
2021/05/10 08:19:27;;;;;;;0.80;0.80;;;;;;;30.87;21.04;100469.75;5035042;28;20029;-74
2021/05/10 08:21:57;;;;;;;1.23;1.10;;;;;;;31.04;21.60;100470.00;5034189;28;20021;-74
2021/05/10 08:24:23;;;;;;;1.13;1.00;;;;;;;30.59;21.78;100459.84;5034022;28;20033;-75
2021/05/10 08:26:49;;;;;;;1.50;1.40;;;;;;;30.08;22.06;100458.88;5035764;28;20491;-76
2021/05/10 08:29:15;;;;;;;0.70;0.70;;;;;;;30.67;21.87;100449.53;5034493;28;20037;-75
2021/05/10 08:31:40;;;;;;;6.53;5.07;;;;;;;31.09;21.41;100459.91;5036969;28;20090;-75
2021/05/10 08:34:06;;;;;;;3.47;1.60;;;;;;;30.71;22.17;100461.66;5036971;28;20475;-74
2021/05/10 08:36:32;;;;;;;1.15;1.00;;;;;;;31.50;21.88;100457.94;5036696;28;20463;-75
2021/05/10 08:38:57;;;;;;;1.50;1.40;;;;;;;30.20;22.33;100439.81;5036298;28;20036;-75
2021/05/10 08:41:23;;;;;;;2.92;1.38;;;;;;;30.82;22.10;100455.28;5036724;28;20040;-76
2021/05/10 08:43:51;;;;;;;3.15;1.38;;;;;;;31.30;21.57;100444.31;5036889;28;20037;-75
2021/05/10 08:46:17;;;;;;;1.75;1.65;;;;;;;30.33;21.98;100439.53;5036793;28;20070;-75
2021/05/10 08:48:44;;;;;;;1.80;1.23;;;;;;;30.84;22.13;100442.03;5036693;28;20032;-75
2021/05/10 08:51:10;;;;;;;2.83;1.10;;;;;;;31.72;21.03;100429.44;5037167;28;20154;-75
2021/05/10 08:53:43;;;;;;;2.38;1.20;;;;;;;31.56;20.81;100427.94;5053942;28;20028;-75
2021/05/10 08:56:11;;;;;;;1.17;1.10;;;;;;;31.38;21.47;100433.19;5036260;28;20040;-75
2021/05/10 08:58:45;;;;;;;8.75;1.30;;;;;;;31.10;21.87;100433.53;5053800;28;20025;-76
2021/05/10 09:01:13;;;;;;;6.72;1.95;;;;;;;32.42;20.52;100422.69;5036732;28;20031;-75
2021/05/10 09:03:50;;;;;;;2.72;1.00;;;;;;;32.96;20.07;100433.63;5054418;28;20411;-75
2021/05/10 09:06:28;;;;;;;1.30;1.20;;;;;;;31.77;20.40;100427.94;5020530;28;20044;-76
2021/05/10 09:08:53;;;;;;;1.45;1.00;;;;;;;31.88;21.14;100427.31;5054304;28;20028;-74
2021/05/10 09:11:20;;;;;;;1.60;1.00;;;;;;;31.79;21.05;100434.75;5036375;28;20036;-75
2021/05/10 09:13:59;;;;;;;1.98;1.20;;;;;;;31.73;20.94;100428.16;5036139;28;20076;-75
2021/05/10 09:16:26;;;;;;;2.30;1.27;;;;;;;31.45;21.76;100424.13;5054350;28;20044;-76
2021/05/10 09:18:51;;;;;;;1.95;1.13;;;;;;;30.96;22.29;100420.81;5035912;28;20087;-75
2021/05/10 09:21:19;;;;;;;4.25;1.30;;;;;;;30.01;23.34;100422.75;5036437;28;20463;-75
2021/05/10 09:23:45;;;;;;;3.85;1.30;;;;;;;30.04;23.58;100415.22;5035910;28;20124;-75
2021/05/10 09:26:12;;;;;;;2.75;1.60;;;;;;;29.85;23.71;100408.09;5035857;28;20563;-74
2021/05/10 09:28:43;;;;;;;1.75;1.15;;;;;;;31.37;22.11;100418.00;5053848;28;20025;-75
2021/05/10 09:31:11;;;;;;;3.25;1.50;;;;;;;32.17;20.75;100409.84;5053710;28;20053;-75
2021/05/10 09:33:47;;;;;;;2.15;1.10;;;;;;;33.03;20.26;100404.34;5019622;28;20086;-75
2021/05/10 09:36:39;;;;;;;1.95;1.33;;;;;;;32.57;20.53;100411.81;5053044;28;20082;-75
2021/05/10 09:39:36;;;;;;;8.15;1.80;;;;;;;32.37;20.56;100409.00;5029698;28;20037;-75
2021/05/10 09:42:08;;;;;;;2.65;1.83;;;;;;;32.96;20.13;100408.47;5053798;28;20029;-75
2021/05/10 09:44:44;;;;;;;3.13;1.55;;;;;;;32.92;20.13;100392.72;5019962;28;20035;-74
2021/05/10 09:47:10;;;;;;;2.38;1.17;;;;;;;32.12;20.86;100395.38;5035765;28;20112;-75
2021/05/10 09:49:48;;;;;;;3.22;1.45;;;;;;;32.70;20.79;100394.09;5035953;28;20021;-75
2021/05/10 09:52:21;;;;;;;1.30;1.20;;;;;;;32.11;20.68;100402.44;5035580;28;20029;-74
2021/05/10 09:54:59;;;;;;;1.40;1.30;;;;;;;32.27;20.94;100388.22;5035356;28;20036;-75
2021/05/10 09:57:25;;;;;;;2.55;1.30;;;;;;;31.40;22.18;100401.84;5035406;28;20025;-74
2021/05/10 10:00:15;;;;;;;3.70;1.45;;;;;;;32.01;21.30;100398.94;5035631;28;20040;-74
2021/05/10 10:02:40;;;;;;;2.85;1.17;;;;;;;31.21;22.56;100384.03;5034910;28;20031;-74
2021/05/10 10:05:08;;;;;;;1.23;1.08;;;;;;;31.94;21.66;100382.13;5035552;28;20487;-75
2021/05/10 10:07:38;;;;;;;3.97;1.40;;;;;;;31.30;22.08;100387.63;5052861;28;20033;-74
2021/05/10 10:10:04;;;;;;;1.73;1.08;;;;;;;32.27;21.19;100375.91;5035229;28;20036;-75
2021/05/10 10:12:32;;;;;;;3.17;1.60;;;;;;;32.45;20.65;100380.56;5035343;28;20071;-75
2021/05/10 10:14:57;;;;;;;2.35;1.00;;;;;;;31.85;21.47;100367.91;5018499;28;20531;-75
2021/05/10 10:17:24;;;;;;;2.58;1.27;;;;;;;32.08;21.43;100375.47;5035041;28;20162;-75
2021/05/10 10:19:52;;;;;;;1.95;1.35;;;;;;;31.60;21.70;100375.97;5035064;28;20025;-76
2021/05/10 10:22:20;;;;;;;5.22;1.20;;;;;;;31.16;22.62;100376.97;5035510;28;20098;-74
2021/05/10 10:24:48;;;;;;;1.40;1.20;;;;;;;30.84;23.08;100375.97;5035133;28;20029;-75
2021/05/10 10:27:18;;;;;;;1.48;1.38;;;;;;;31.30;22.43;100367.50;5035066;28;20033;-75
2021/05/10 10:29:46;;;;;;;1.08;1.00;;;;;;;31.74;21.47;100366.44;5034754;28;20059;-75
2021/05/10 10:32:17;;;;;;;1.20;1.10;;;;;;;32.50;21.12;100365.44;5052808;28;20100;-75
2021/05/10 10:34:47;;;;;;;1.83;1.02;;;;;;;32.46;20.83;100364.88;5035027;28;20048;-75
2021/05/10 10:37:15;;;;;;;0.95;0.90;;;;;;;32.53;20.97;100355.75;5038091;28;20067;-74
2021/05/10 10:39:58;;;;;;;1.98;0.98;;;;;;;31.83;21.75;100361.88;5039451;28;20029;-73
2021/05/10 10:42:27;;;;;;;1.50;1.20;;;;;;;32.33;21.85;100340.13;5039235;28;20592;-74
2021/05/10 10:44:58;;;;;;;3.95;1.10;;;;;;;32.56;21.96;100360.50;5038943;28;20042;-74
2021/05/10 10:47:57;;;;;;;1.48;1.13;;;;;;;32.17;22.45;100352.25;5039094;28;20102;-74
2021/05/10 10:50:25;;;;;;;1.52;1.25;;;;;;;32.92;21.50;100352.38;5039087;28;20025;-74
2021/05/10 10:52:58;;;;;;;1.30;1.20;;;;;;;32.48;21.67;100344.97;5038947;28;20029;-75
2021/05/10 10:55:27;;;;;;;2.08;1.33;;;;;;;32.69;21.41;100339.88;5056590;28;20025;-75
2021/05/10 10:58:13;;;;;;;2.05;1.15;;;;;;;31.42;22.54;100351.16;5038651;28;20039;-75
2021/05/10 11:00:59;;;;;;;3.15;1.40;;;;;;;31.55;22.38;100348.72;5038610;28;20098;-74
2021/05/10 11:03:29;;;;;;;5.80;1.30;;;;;;;31.79;22.76;100348.47;5038817;28;20025;-74
2021/05/10 11:05:55;;;;;;;2.03;1.38;;;;;;;32.13;22.34;100339.44;5038495;28;20348;-74
2021/05/10 11:08:39;;;;;;;2.08;1.25;;;;;;;32.18;21.93;100339.47;5038642;28;20021;-74
2021/05/10 11:11:06;;;;;;;1.00;1.00;;;;;;;31.49;23.04;100336.38;5038655;28;20482;-74
2021/05/10 11:13:32;;;;;;;3.78;2.08;;;;;;;31.31;22.65;100342.41;5056476;28;20544;-74
2021/05/10 11:15:59;;;;;;;2.08;1.40;;;;;;;31.34;22.62;100340.63;5038362;28;20029;-74
2021/05/10 11:18:53;;;;;;;2.92;1.60;;;;;;;31.94;22.16;100336.09;5038448;28;20032;-72
2021/05/10 11:21:22;;;;;;;4.55;1.65;;;;;;;31.35;22.85;100343.00;5038299;28;20036;-74
2021/05/10 11:23:52;;;;;;;2.13;1.10;;;;;;;30.85;22.68;100339.41;5038228;28;20021;-73
2021/05/10 11:26:41;;;;;;;1.83;1.48;;;;;;;31.14;23.13;100324.94;5038562;28;20036;-77
2021/05/10 11:29:08;;;;;;;5.35;1.50;;;;;;;31.12;22.56;100330.41;5038224;28;20491;-74
2021/05/10 11:31:44;;;;;;;3.08;1.30;;;;;;;31.38;22.57;100335.47;5037775;28;20049;-73
2021/05/10 11:34:15;;;;;;;1.80;1.40;;;;;;;31.27;22.11;100319.66;5038016;28;20028;-74
2021/05/10 11:36:55;;;;;;;2.53;1.00;;;;;;;31.02;22.27;100331.81;5055903;28;20060;-74
2021/05/10 11:39:27;;;;;;;3.17;1.08;;;;;;;31.25;22.60;100322.22;5038067;28;20033;-75
2021/05/10 11:42:03;;;;;;;1.30;1.20;;;;;;;30.42;23.08;100324.66;5038157;28;20029;-73